Time;durP1;ratioP1;P1;durP2;ratioP2;P2;SDS_P1;SDS_P2;PMS_P1;PMS_P2;Temp;Humidity;BMP_temperature;BMP_pressure;BME280_temperature;BME280_humidity;BME280_pressure;Samples;Min_cycle;Max_cycle;Signal;HPM_P1;HPM_P2
2022/02/07 00:00:05;;;;;;;9.98;1.98;;;;;;;4.37;85.63;100941.66;5035241;28;20095;-63
2022/02/07 00:02:50;;;;;;;12.38;2.28;;;;;;;4.33;86.95;100967.94;5034779;28;20350;-63
2022/02/07 00:05:21;;;;;;;18.90;3.28;;;;;;;3.85;90.18;100958.19;5034495;28;20041;-64
2022/02/07 00:07:46;;;;;;;17.70;2.55;;;;;;;3.57;91.91;100975.19;5034460;28;20101;-63
2022/02/07 00:10:11;;;;;;;12.73;2.45;;;;;;;3.43;93.31;100974.50;5034502;28;20113;-64
2022/02/07 00:12:37;;;;;;;12.32;2.35;;;;;;;3.39;94.04;100973.69;5034440;28;20029;-63
2022/02/07 00:15:03;;;;;;;11.98;2.47;;;;;;;3.39;94.08;100967.56;5034361;28;20060;-65
2022/02/07 00:17:29;;;;;;;23.73;2.75;;;;;;;3.43;94.12;100980.59;5034668;28;20025;-62
2022/02/07 00:19:57;;;;;;;13.85;2.53;;;;;;;3.56;93.28;100990.91;5034957;28;20048;-63
2022/02/07 00:22:22;;;;;;;20.48;2.90;;;;;;;3.60;91.82;100993.47;5034158;28;20104;-62
2022/02/07 00:24:48;;;;;;;12.85;2.55;;;;;;;3.66;90.18;101008.25;5034253;28;20421;-63
2022/02/07 00:27:13;;;;;;;13.00;2.00;;;;;;;3.71;89.27;101008.16;5034129;28;20029;-63
2022/02/07 00:29:38;;;;;;;11.57;2.13;;;;;;;3.74;88.90;101016.00;5034047;28;20448;-64
2022/02/07 00:32:04;;;;;;;11.05;2.10;;;;;;;3.71;89.94;101019.53;5035020;28;20036;-63
2022/02/07 00:34:29;;;;;;;12.48;2.63;;;;;;;3.78;90.08;101022.91;5034095;28;20453;-63
2022/02/07 00:36:55;;;;;;;16.52;3.45;;;;;;;3.87;90.43;101028.00;5034208;28;20033;-63
2022/02/07 00:39:29;;;;;;;23.67;4.43;;;;;;;4.01;89.66;101024.34;5033820;28;20403;-63
2022/02/07 00:42:02;;;;;;;10.63;2.13;;;;;;;4.12;87.59;101035.53;5033811;28;20116;-64
2022/02/07 00:44:28;;;;;;;12.48;2.42;;;;;;;4.22;85.14;101047.63;5033749;28;20026;-64
2022/02/07 00:47:05;;;;;;;13.82;2.28;;;;;;;4.37;81.90;101069.25;5034094;28;20056;-63
2022/02/07 00:49:30;;;;;;;12.15;2.10;;;;;;;4.43;80.89;101062.13;5033914;28;20025;-63
2022/02/07 00:51:56;;;;;;;10.80;2.20;;;;;;;4.43;79.68;101075.25;5034481;28;20436;-63
2022/02/07 00:54:21;;;;;;;13.23;2.10;;;;;;;4.41;79.94;101078.78;5033689;28;20100;-63
2022/02/07 00:56:47;;;;;;;18.38;2.67;;;;;;;4.46;79.27;101086.59;5033546;28;20068;-63
2022/02/07 00:59:12;;;;;;;9.80;2.53;;;;;;;4.41;80.20;101079.66;5033517;28;20053;-63
2022/02/07 01:01:38;;;;;;;16.02;2.15;;;;;;;4.37;80.69;101101.59;5033557;28;20061;-64
2022/02/07 01:04:04;;;;;;;13.73;2.50;;;;;;;4.36;82.10;101109.44;5033297;28;20114;-63
2022/02/07 01:06:29;;;;;;;14.90;1.95;;;;;;;4.40;81.77;101116.41;5033550;28;20026;-63
2022/02/07 01:09:10;;;;;;;18.38;3.22;;;;;;;4.54;79.88;101118.78;5033065;28;20040;-64
2022/02/07 01:19:37;;;;;;;9.20;2.00;;;;;;;4.57;78.59;101158.09;5033365;28;20080;-63
2022/02/07 01:22:15;;;;;;;12.02;1.92;;;;;;;4.50;78.67;101164.31;5033210;28;20021;-64
2022/02/07 01:51:59;;;;;;;9.50;2.20;;;;;;;4.30;84.16;101316.66;5032412;28;20120;-62
2022/02/07 01:56:50;;;;;;;9.23;1.92;;;;;;;4.53;77.68;101334.78;5033565;28;20128;-64
2022/02/07 01:59:16;;;;;;;9.80;2.10;;;;;;;4.53;78.06;101332.16;5032492;28;20065;-64
2022/02/07 02:01:41;;;;;;;11.13;2.10;;;;;;;4.49;77.31;101340.91;5032609;28;20025;-64
2022/02/07 02:04:07;;;;;;;10.77;2.10;;;;;;;4.43;78.51;101350.59;5032425;28;20108;-64
2022/02/07 02:06:34;;;;;;;9.50;2.42;;;;;;;4.45;78.24;101344.47;5033363;28;20017;-64
2022/02/07 02:09:01;;;;;;;17.98;2.40;;;;;;;4.43;78.78;101368.94;5032698;28;20060;-64
2022/02/07 02:11:27;;;;;;;17.85;2.40;;;;;;;4.44;79.38;101348.84;5033452;28;20033;-63
2022/02/07 02:16:27;;;;;;;13.70;2.17;;;;;;;4.48;78.34;101374.16;5032123;28;20037;-64
2022/02/07 02:19:37;;;;;;;7.93;1.83;;;;;;;4.53;77.90;101390.72;5050819;28;20032;-63
2022/02/07 02:22:39;;;;;;;11.55;1.92;;;;;;;4.67;74.67;101394.94;5052168;28;20107;-63
2022/02/07 02:38:15;;;;;;;16.20;2.83;;;;;;;4.95;75.46;101432.22;5033758;28;20045;-64
2022/02/07 02:46:09;;;;;;;14.60;2.28;;;;;;;4.97;74.79;101446.19;5032348;28;20117;-64
2022/02/07 02:48:41;;;;;;;12.07;1.92;;;;;;;4.93;75.92;101457.59;5033089;28;20124;-64
2022/02/07 02:51:08;;;;;;;15.73;2.10;;;;;;;4.97;76.19;101469.81;5032575;28;20025;-63
2022/02/07 02:53:34;;;;;;;16.20;2.20;;;;;;;4.96;76.48;101457.56;5032170;28;20033;-62
2022/02/07 02:55:59;;;;;;;10.05;1.90;;;;;;;5.00;75.58;101479.41;5032080;28;20033;-62
2022/02/07 02:58:24;;;;;;;13.93;2.08;;;;;;;4.98;75.62;101475.94;5031313;28;20105;-62
2022/02/07 03:00:52;;;;;;;9.20;2.25;;;;;;;4.96;76.66;101482.94;5036209;28;20543;-63
2022/02/07 03:03:17;;;;;;;17.40;2.92;;;;;;;4.96;75.84;101485.56;5027329;28;20029;-63
2022/02/07 03:05:45;;;;;;;11.90;2.15;;;;;;;4.97;76.38;101501.31;5015863;28;20034;-63
2022/02/07 03:08:15;;;;;;;17.98;2.70;;;;;;;4.98;76.94;101499.56;5022849;28;20076;-62
2022/02/07 03:13:31;;;;;;;15.60;2.60;;;;;;;4.86;76.85;101518.91;5035329;28;20127;-63
2022/02/07 03:18:40;;;;;;;15.98;2.97;;;;;;;4.84;78.90;101539.06;5024058;28;20076;-63
2022/02/07 03:21:06;;;;;;;21.88;4.18;;;;;;;4.79;78.88;101544.34;5036365;28;20021;-63
2022/02/07 03:23:31;;;;;;;17.83;2.40;;;;;;;4.72;80.23;101548.78;5035448;28;20025;-63
2022/02/07 03:25:57;;;;;;;16.45;2.88;;;;;;;4.75;80.47;101556.63;5035317;28;20025;-63
2022/02/07 03:28:25;;;;;;;22.17;3.25;;;;;;;4.79;78.48;101564.50;5034670;28;20108;-63
2022/02/07 03:30:50;;;;;;;14.88;2.75;;;;;;;4.86;77.74;101574.03;5035024;28;20389;-63
2022/02/07 03:33:16;;;;;;;18.35;2.35;;;;;;;4.90;78.60;101583.63;5036222;28;20028;-65
2022/02/07 03:35:42;;;;;;;15.50;2.60;;;;;;;4.92;78.65;101610.72;5035254;28;20022;-63
2022/02/07 03:38:08;;;;;;;20.15;3.28;;;;;;;4.97;78.54;101608.06;5035249;28;20099;-63
2022/02/07 03:40:34;;;;;;;14.70;2.10;;;;;;;5.02;79.18;101611.50;5034877;28;20049;-63
2022/02/07 03:43:00;;;;;;;16.20;2.65;;;;;;;5.05;78.92;101620.25;5035861;28;20038;-63
2022/02/07 03:45:25;;;;;;;12.40;2.72;;;;;;;5.07;79.66;101621.06;5034734;28;20116;-64
2022/02/07 03:47:50;;;;;;;18.40;2.30;;;;;;;5.06;80.22;101627.22;5034903;28;20462;-63
2022/02/07 03:50:16;;;;;;;19.48;3.45;;;;;;;5.03;81.36;101639.50;5034840;28;20042;-62
2022/02/07 03:52:42;;;;;;;12.35;3.03;;;;;;;4.99;80.80;101657.03;5035944;28;20492;-62
2022/02/07 03:55:08;;;;;;;15.48;2.30;;;;;;;5.04;80.28;101655.25;5035304;28;20029;-64
2022/02/07 03:57:34;;;;;;;16.15;2.97;;;;;;;5.06;79.59;101650.84;5034913;28;20023;-63
2022/02/07 04:00:02;;;;;;;16.00;2.42;;;;;;;5.08;79.73;101667.44;5033991;28;20538;-63
2022/02/07 04:02:27;;;;;;;12.93;2.55;;;;;;;5.08;80.69;101659.56;5034688;28;20443;-63
2022/02/07 04:05:02;;;;;;;28.27;3.05;;;;;;;5.08;79.98;101662.19;5035638;28;20072;-63
2022/02/07 04:07:27;;;;;;;17.23;2.70;;;;;;;5.09;81.50;101690.19;5034612;28;20473;-64
2022/02/07 04:09:55;;;;;;;19.73;3.17;;;;;;;5.08;80.41;101696.31;5035525;28;20021;-64
2022/02/07 04:12:24;;;;;;;14.15;2.83;;;;;;;5.13;79.69;101693.69;5034041;28;20025;-62
2022/02/07 04:14:50;;;;;;;12.73;2.63;;;;;;;5.19;79.19;101711.13;5034111;28;20025;-63
2022/02/07 04:17:21;;;;;;;18.38;3.15;;;;;;;5.20;78.88;101708.47;5033829;28;20029;-64
2022/02/07 04:19:46;;;;;;;20.23;2.60;;;;;;;5.20;78.40;101708.47;5034270;28;20428;-64
2022/02/07 04:22:12;;;;;;;13.77;2.60;;;;;;;5.20;78.23;101720.75;5034559;28;20087;-63
2022/02/07 04:24:37;;;;;;;21.77;3.20;;;;;;;5.18;79.62;101728.66;5034614;28;20021;-64
2022/02/07 04:27:03;;;;;;;17.08;3.33;;;;;;;5.24;79.84;101727.72;5034044;28;20385;-63
2022/02/07 04:29:28;;;;;;;18.83;2.97;;;;;;;5.23;79.79;101739.97;5033988;28;20057;-64
2022/02/07 04:31:54;;;;;;;20.52;3.00;;;;;;;5.24;80.04;101735.59;5034656;28;20071;-63
2022/02/07 04:34:19;;;;;;;18.80;3.63;;;;;;;5.25;80.57;101748.69;5034315;28;20033;-63
2022/02/07 04:36:48;;;;;;;15.60;2.95;;;;;;;5.27;80.85;101759.22;5034202;28;20488;-63
2022/02/07 04:39:14;;;;;;;15.63;2.42;;;;;;;5.29;81.87;101765.31;5034096;28;20025;-63
2022/02/07 04:41:41;;;;;;;13.02;2.95;;;;;;;5.28;81.76;101779.34;5033348;28;20511;-63
2022/02/07 04:44:10;;;;;;;15.35;2.95;;;;;;;5.27;82.40;101771.47;5034705;28;20024;-64
2022/02/07 04:52:01;;;;;;;13.05;2.65;;;;;;;5.30;81.46;101808.22;5034118;28;20543;-63
2022/02/07 05:00:04;;;;;;;19.55;3.50;;;;;;;5.35;81.47;101825.69;5033544;28;20040;-63
2022/02/07 05:15:47;;;;;;;17.27;3.00;;;;;;;5.36;82.11;101856.31;5033148;28;20099;-63
2022/02/07 05:18:12;;;;;;;20.85;5.18;;;;;;;5.39;83.03;101865.94;5032908;28;20030;-64
2022/02/07 05:20:38;;;;;;;16.85;4.43;;;;;;;5.39;83.53;101864.16;5033327;28;20385;-64
2022/02/07 05:23:03;;;;;;;18.95;3.53;;;;;;;5.38;84.55;101878.22;5032881;28;20042;-63
2022/02/07 05:25:29;;;;;;;15.38;2.58;;;;;;;5.39;84.84;101877.28;5033438;28;20087;-64
2022/02/07 05:27:54;;;;;;;17.10;4.45;;;;;;;5.36;84.40;101887.84;5032821;28;20462;-64
2022/02/07 05:30:19;;;;;;;22.98;3.95;;;;;;;5.36;85.21;101900.97;5033238;28;20029;-64
2022/02/07 05:32:45;;;;;;;14.43;3.58;;;;;;;5.35;85.34;101904.47;5032984;28;20457;-63
2022/02/07 05:35:10;;;;;;;20.80;2.97;;;;;;;5.35;84.77;101907.09;5033617;28;20036;-64
2022/02/07 05:37:36;;;;;;;21.70;3.55;;;;;;;5.37;84.72;101926.38;5032864;28;20090;-63
2022/02/07 05:40:08;;;;;;;18.23;2.72;;;;;;;5.44;84.51;101919.31;5032574;28;20371;-62
2022/02/07 05:42:38;;;;;;;17.13;3.00;;;;;;;5.42;85.17;101921.06;5033018;28;20030;-63
2022/02/07 05:45:07;;;;;;;16.25;3.00;;;;;;;5.39;84.99;101927.22;5032288;28;20029;-64
2022/02/07 05:47:32;;;;;;;15.27;3.30;;;;;;;5.37;85.34;101931.63;5033761;28;20049;-62
2022/02/07 05:49:58;;;;;;;20.85;3.28;;;;;;;5.36;85.16;101931.63;5022615;28;20034;-64
2022/02/07 05:52:23;;;;;;;17.83;3.30;;;;;;;5.35;84.62;101933.38;5026657;28;20031;-63
2022/02/07 05:54:49;;;;;;;22.65;3.22;;;;;;;5.34;83.86;101934.25;5032318;28;20392;-63
2022/02/07 05:57:14;;;;;;;19.58;3.17;;;;;;;5.34;83.67;101946.50;5033721;28;20029;-63
2022/02/07 05:59:40;;;;;;;13.18;2.63;;;;;;;5.31;83.67;101946.53;5032357;28;20163;-64
2022/02/07 06:02:05;;;;;;;19.50;3.65;;;;;;;5.30;84.12;101945.66;5032584;28;20465;-63
2022/02/07 06:04:30;;;;;;;16.67;2.65;;;;;;;5.31;83.69;101957.06;5031956;28;20025;-63
2022/02/07 06:06:56;;;;;;;20.70;3.17;;;;;;;5.29;83.54;101953.53;5033101;28;20030;-63
2022/02/07 06:09:22;;;;;;;19.38;2.85;;;;;;;5.24;83.68;101956.19;5012699;28;20026;-63
2022/02/07 06:11:47;;;;;;;17.52;2.45;;;;;;;5.17;83.84;101957.09;5012639;28;20402;-63
2022/02/07 06:14:12;;;;;;;17.50;2.78;;;;;;;5.14;84.10;101973.75;5012579;28;20036;-64
2022/02/07 06:16:38;;;;;;;16.48;3.10;;;;;;;5.13;83.99;101968.47;5020519;28;20022;-65
2022/02/07 06:19:03;;;;;;;15.05;3.75;;;;;;;5.12;84.75;101979.88;5032971;28;20072;-64
2022/02/07 06:21:32;;;;;;;19.75;3.05;;;;;;;5.06;85.02;101965.91;5032246;28;20029;-64
2022/02/07 06:23:57;;;;;;;19.08;4.18;;;;;;;5.08;84.92;101977.25;5032237;28;20026;-64
2022/02/07 06:26:23;;;;;;;15.82;3.63;;;;;;;5.07;85.21;101977.25;5031904;28;20116;-64
2022/02/07 06:28:48;;;;;;;17.35;2.85;;;;;;;5.03;85.15;101986.03;5033324;28;20052;-64
2022/02/07 06:31:13;;;;;;;21.35;3.38;;;;;;;4.97;85.90;101993.94;5032428;28;20092;-63
2022/02/07 06:33:39;;;;;;;16.88;2.78;;;;;;;4.96;86.53;102011.41;5031743;28;20057;-63
2022/02/07 06:36:04;;;;;;;17.98;4.25;;;;;;;4.96;87.59;102006.16;5032442;28;20025;-63
2022/02/07 06:38:30;;;;;;;17.55;2.83;;;;;;;4.98;87.26;102012.28;5031982;28;20400;-63
2022/02/07 06:40:55;;;;;;;17.58;3.45;;;;;;;5.01;87.55;102025.44;5036863;28;20079;-64
2022/02/07 06:43:20;;;;;;;18.67;3.40;;;;;;;5.05;87.53;102028.91;5036073;28;20056;-64
2022/02/07 06:45:46;;;;;;;25.83;3.22;;;;;;;5.05;87.53;102037.66;5035700;28;20025;-63
2022/02/07 06:48:11;;;;;;;21.60;3.15;;;;;;;5.07;87.72;102048.16;5035333;28;20484;-65
2022/02/07 06:50:36;;;;;;;22.05;3.35;;;;;;;5.05;88.04;102055.16;5036424;28;20414;-64
2022/02/07 06:53:02;;;;;;;15.98;2.65;;;;;;;5.13;87.88;102063.00;5035952;28;20033;-63
2022/02/07 06:55:27;;;;;;;16.98;2.78;;;;;;;5.13;87.54;102066.53;5034097;28;20124;-63
2022/02/07 06:57:52;;;;;;;18.25;3.33;;;;;;;5.14;88.73;102078.78;5035753;28;20115;-64
2022/02/07 07:00:18;;;;;;;20.67;2.90;;;;;;;5.15;88.44;102087.53;5036371;28;20032;-64
2022/02/07 07:02:44;;;;;;;18.23;3.15;;;;;;;5.16;88.57;102108.53;5035387;28;20079;-64
2022/02/07 07:05:13;;;;;;;20.80;3.20;;;;;;;5.15;87.56;102106.75;5035317;28;20030;-66
2022/02/07 07:07:39;;;;;;;22.02;3.25;;;;;;;5.15;88.57;102117.28;5036111;28;20056;-63
2022/02/07 07:10:07;;;;;;;17.00;3.53;;;;;;;5.11;88.46;102117.28;5035470;28;20026;-64
2022/02/07 07:12:32;;;;;;;23.25;4.60;;;;;;;5.08;88.49;102116.41;5036587;28;20033;-63
2022/02/07 07:15:28;;;;;;;24.77;4.30;;;;;;;5.09;88.40;102120.78;5035048;28;20457;-62
2022/02/07 07:17:43;;;;;;;19.58;4.10;;;;;;;5.12;88.84;102121.69;5035083;28;20171;-64
2022/02/07 07:20:11;;;;;;;14.52;3.03;;;;;;;5.17;88.99;102140.94;5034315;28;20120;-64
2022/02/07 07:22:37;;;;;;;20.55;3.20;;;;;;;5.29;88.54;102140.88;5034827;28;20048;-63
2022/02/07 07:25:04;;;;;;;17.98;4.05;;;;;;;5.31;88.97;102143.53;5034733;28;20025;-64
2022/02/07 07:27:34;;;;;;;21.77;3.20;;;;;;;5.32;88.82;102146.16;5034086;28;20092;-64
2022/02/07 07:29:59;;;;;;;22.25;3.47;;;;;;;5.33;88.54;102153.16;5031347;28;20025;-63
2022/02/07 07:32:28;;;;;;;21.75;3.33;;;;;;;5.40;89.42;102160.13;5034625;28;20492;-62
2022/02/07 07:34:55;;;;;;;24.85;3.33;;;;;;;5.40;89.00;102169.78;5035070;28;20022;-63
2022/02/07 07:37:21;;;;;;;18.15;3.05;;;;;;;5.40;89.95;102175.88;5030849;28;20033;-63
2022/02/07 07:39:46;;;;;;;18.75;3.20;;;;;;;5.39;90.21;102175.91;5015015;28;20030;-62
2022/02/07 07:42:11;;;;;;;15.10;3.72;;;;;;;5.40;90.28;102182.91;5014780;28;20447;-65
2022/02/07 07:44:38;;;;;;;24.67;3.83;;;;;;;5.41;90.71;102205.69;5013961;28;20401;-64
2022/02/07 07:47:10;;;;;;;19.60;4.30;;;;;;;5.46;90.96;102210.91;5030887;28;20049;-62
2022/02/07 07:49:44;;;;;;;16.50;3.58;;;;;;;5.47;90.56;102210.03;5034603;28;20101;-62
2022/02/07 07:52:14;;;;;;;29.35;3.75;;;;;;;5.49;90.71;102216.19;5033903;28;20025;-63
2022/02/07 08:02:39;;;;;;;20.67;3.30;;;;;;;5.51;91.69;102248.56;5035164;28;20095;-63
2022/02/07 08:05:16;;;;;;;28.27;3.50;;;;;;;5.51;91.42;102246.84;5048318;28;20029;-63
2022/02/07 08:07:42;;;;;;;19.05;3.45;;;;;;;5.54;91.84;102246.81;5043658;28;20065;-62
2022/02/07 08:10:44;;;;;;;30.95;3.97;;;;;;;5.50;93.13;102255.59;5034636;28;20104;-64
2022/02/07 08:12:53;;;;;;;15.18;3.22;;;;;;;5.52;93.01;102260.81;5034427;28;20045;-62
2022/02/07 08:15:19;;;;;;;15.27;3.10;;;;;;;5.48;93.13;102269.59;5034817;28;20385;-64
2022/02/07 08:17:44;;;;;;;18.02;3.10;;;;;;;5.48;92.59;102270.47;5036669;28;20017;-63
2022/02/07 08:20:11;;;;;;;22.73;4.15;;;;;;;5.61;92.12;102273.09;5034377;28;20033;-63
2022/02/07 08:22:37;;;;;;;19.45;3.05;;;;;;;5.70;92.14;102276.59;5033785;28;20058;-64
2022/02/07 08:25:03;;;;;;;19.63;4.53;;;;;;;5.80;91.10;102277.44;5023416;28;20030;-64
2022/02/07 08:27:30;;;;;;;18.50;4.35;;;;;;;5.88;89.70;102275.69;5034557;28;20068;-65
2022/02/07 08:29:57;;;;;;;27.27;4.30;;;;;;;5.93;88.24;102293.19;5033971;28;20389;-64
2022/02/07 08:32:22;;;;;;;19.35;3.55;;;;;;;5.93;88.77;102293.19;5028638;28;20072;-64
2022/02/07 08:34:48;;;;;;;23.52;2.63;;;;;;;5.97;88.64;102272.16;5014481;28;20029;-63
2022/02/07 08:37:14;;;;;;;22.08;4.50;;;;;;;5.91;88.55;102286.19;5035725;28;20021;-62
2022/02/07 08:39:39;;;;;;;18.58;3.25;;;;;;;5.93;88.68;102280.91;5034213;28;20485;-63
2022/02/07 08:42:05;;;;;;;21.40;2.80;;;;;;;6.01;88.86;102289.72;5032070;28;20133;-63
2022/02/07 08:44:31;;;;;;;14.00;2.75;;;;;;;6.10;87.83;102293.19;5033509;28;20061;-62
2022/02/07 08:46:56;;;;;;;15.25;2.35;;;;;;;6.20;87.51;102301.06;5034370;28;20044;-64
2022/02/07 08:49:22;;;;;;;18.40;2.53;;;;;;;6.26;86.31;102318.56;5035268;28;20112;-63
2022/02/07 08:51:49;;;;;;;14.82;3.05;;;;;;;6.32;85.92;102326.44;5032891;28;20041;-63
2022/02/07 08:54:20;;;;;;;16.77;3.88;;;;;;;6.36;85.92;102340.47;5034016;28;20075;-63
2022/02/07 08:56:55;;;;;;;17.63;3.70;;;;;;;6.43;85.77;102342.19;5033334;28;20116;-63
2022/02/07 08:59:27;;;;;;;23.98;6.65;;;;;;;6.50;84.81;102357.06;5046031;28;20059;-64
2022/02/07 09:02:10;;;;;;;15.77;4.25;;;;;;;6.62;84.67;102369.31;5040241;28;20500;-63
2022/02/07 09:04:45;;;;;;;18.23;3.47;;;;;;;6.78;83.23;102364.88;5052197;28;20492;-64
2022/02/07 09:07:25;;;;;;;14.93;2.75;;;;;;;7.24;82.94;102368.13;5049718;28;20095;-64
2022/02/07 09:09:52;;;;;;;15.65;2.83;;;;;;;7.48;81.04;102389.06;5034428;28;20021;-64
2022/02/07 09:12:18;;;;;;;18.65;2.67;;;;;;;7.32;79.16;102385.66;5033050;28;20045;-61
2022/02/07 09:14:54;;;;;;;18.80;3.60;;;;;;;7.12;79.54;102391.03;5033009;28;20030;-63
2022/02/07 09:17:20;;;;;;;17.10;2.70;;;;;;;7.05;80.25;102398.09;5031942;28;20103;-62
2022/02/07 09:19:45;;;;;;;19.50;2.75;;;;;;;6.98;81.71;102408.66;5021999;28;20432;-63
2022/02/07 09:22:10;;;;;;;14.27;2.30;;;;;;;6.85;82.24;102403.47;5032974;28;20454;-63
2022/02/07 09:24:36;;;;;;;18.17;3.55;;;;;;;6.72;82.83;102402.63;5034030;28;20051;-62
2022/02/07 09:27:01;;;;;;;13.43;2.33;;;;;;;6.72;82.73;102425.44;5032656;28;20021;-63
2022/02/07 09:29:26;;;;;;;19.52;3.55;;;;;;;6.73;82.93;102419.31;5032918;28;20022;-61
2022/02/07 09:31:51;;;;;;;15.32;2.20;;;;;;;6.71;82.83;102427.22;5033148;28;20026;-62
2022/02/07 09:34:17;;;;;;;22.73;2.67;;;;;;;6.75;81.55;102429.81;5033139;28;20101;-62
2022/02/07 09:36:43;;;;;;;16.15;2.38;;;;;;;6.91;81.61;102430.66;5031479;28;20053;-72
2022/02/07 09:39:08;;;;;;;17.35;2.92;;;;;;;7.27;82.73;102428.72;5030417;28;20033;-63
2022/02/07 09:41:35;;;;;;;16.25;2.13;;;;;;;8.47;79.99;102430.44;5023546;28;20064;-61
2022/02/07 09:44:03;;;;;;;18.42;3.03;;;;;;;9.11;77.07;102448.22;5028297;28;20473;-63
2022/02/07 09:46:43;;;;;;;13.70;3.17;;;;;;;8.70;76.67;102458.38;5031910;28;20049;-63
2022/02/07 09:49:10;;;;;;;17.05;2.95;;;;;;;8.35;78.28;102459.56;5032522;28;20071;-62
2022/02/07 09:51:35;;;;;;;18.23;2.63;;;;;;;7.85;78.54;102472.28;5032826;28;20029;-62
2022/02/07 09:54:01;;;;;;;13.32;2.38;;;;;;;7.35;81.03;102471.72;5032618;28;20453;-61
2022/02/07 09:56:26;;;;;;;10.30;2.22;;;;;;;7.23;81.51;102488.47;5044226;28;20029;-63
2022/02/07 09:58:53;;;;;;;17.75;3.28;;;;;;;7.07;81.69;102494.69;5032758;28;20120;-63
2022/02/07 10:01:27;;;;;;;15.95;3.50;;;;;;;7.05;81.95;102516.63;5032621;28;20553;-62
2022/02/07 10:04:10;;;;;;;16.50;2.83;;;;;;;6.96;83.23;102521.06;5024805;28;20017;-63
2022/02/07 10:09:20;;;;;;;17.05;3.28;;;;;;;6.99;84.17;102526.31;5016678;28;20078;-62
2022/02/07 10:12:43;;;;;;;17.35;3.65;;;;;;;6.88;84.89;102507.91;5017625;28;20034;-63
2022/02/07 10:19:56;;;;;;;15.40;2.97;;;;;;;7.25;82.49;102514.81;5021695;28;20447;-63
2022/02/07 10:47:17;;;;;;;12.65;2.53;;;;;;;7.87;77.08;102568.13;5030151;28;20080;-62
2022/02/07 10:50:18;;;;;;;16.17;3.72;;;;;;;8.21;76.03;102573.19;5031457;28;20018;-63
2022/02/07 10:52:55;;;;;;;15.57;3.95;;;;;;;8.13;75.17;102573.25;4921987;29;20111;-62
2022/02/07 10:55:23;;;;;;;12.32;2.97;;;;;;;8.04;77.02;102576.81;4924674;29;20040;-62
2022/02/07 10:57:51;;;;;;;16.08;2.58;;;;;;;8.01;76.64;102582.09;4927316;29;20096;-63
2022/02/07 11:00:21;;;;;;;17.30;3.15;;;;;;;7.81;76.32;102574.31;4930330;29;20048;-62
2022/02/07 11:03:02;;;;;;;13.85;2.75;;;;;;;7.87;77.92;102563.72;4921699;29;20039;-62
2022/02/07 11:05:34;;;;;;;17.50;2.70;;;;;;;8.85;77.16;102568.28;4929684;29;20555;-62
2022/02/07 11:08:17;;;;;;;11.50;2.22;;;;;;;9.94;71.51;102567.88;4927872;29;20039;-62
2022/02/07 11:16:14;;;;;;;15.23;2.40;;;;;;;11.05;63.65;102575.75;4919447;29;20536;-62
2022/02/07 11:21:39;;;;;;;11.80;2.45;;;;;;;12.45;60.07;102569.22;4951967;28;20058;-61
2022/02/07 11:24:32;;;;;;;17.35;3.15;;;;;;;13.17;57.88;102555.78;4950906;28;20062;-62
2022/02/07 11:27:34;;;;;;;13.30;2.50;;;;;;;13.36;55.54;102552.59;4988447;28;20046;-63
2022/02/07 11:30:01;;;;;;;13.60;2.75;;;;;;;13.21;54.44;102559.22;5015191;28;20025;-63
2022/02/07 11:32:42;;;;;;;16.58;2.50;;;;;;;12.48;56.39;102563.84;5021023;28;20033;-63
2022/02/07 11:35:28;;;;;;;11.75;2.65;;;;;;;13.59;54.70;102552.81;5020379;28;20114;-62
2022/02/07 11:37:59;;;;;;;14.90;2.67;;;;;;;12.72;56.48;102566.75;5029946;28;20112;-63
2022/02/07 11:40:37;;;;;;;15.98;2.47;;;;;;;12.10;59.15;102549.69;5035202;28;20025;-62
2022/02/07 11:43:07;;;;;;;15.00;2.60;;;;;;;12.55;56.33;102549.47;5033555;28;20121;-62
2022/02/07 11:45:53;;;;;;;13.40;2.70;;;;;;;13.44;54.16;102529.34;5036311;28;20022;-61
2022/02/07 11:48:43;;;;;;;14.32;2.45;;;;;;;14.17;52.72;102554.56;5038635;28;20286;-62
2022/02/07 11:51:22;;;;;;;14.50;3.38;;;;;;;14.81;49.29;102540.00;5031735;28;20090;-63
2022/02/07 11:53:57;;;;;;;9.43;2.42;;;;;;;13.90;50.16;102554.53;5014870;28;20150;-62
2022/02/07 11:56:37;;;;;;;12.02;2.78;;;;;;;12.54;52.85;102560.13;5024597;28;20021;-63
2022/02/07 12:02:01;;;;;;;16.23;2.65;;;;;;;13.08;53.39;102556.03;5026334;28;20092;-62
2022/02/07 12:04:28;;;;;;;14.38;2.63;;;;;;;13.57;51.33;102569.75;5020357;28;20111;-62
2022/02/07 12:07:22;;;;;;;10.32;2.42;;;;;;;13.87;49.47;102567.06;5040755;28;20021;-63
2022/02/07 12:12:32;;;;;;;15.70;2.33;;;;;;;14.12;48.43;102572.50;5034363;28;20036;-62
2022/02/07 12:16:00;;;;;;;14.63;2.78;;;;;;;14.28;45.74;102580.00;5034204;28;20029;-64
2022/02/07 12:18:20;;;;;;;14.45;2.60;;;;;;;14.22;45.47;102592.59;5025648;28;20124;-61
2022/02/07 12:20:48;;;;;;;13.13;2.30;;;;;;;14.22;47.62;102589.94;5028392;28;20032;-62
2022/02/07 12:23:17;;;;;;;11.98;2.47;;;;;;;14.31;47.37;102591.44;5033680;28;20033;-62
2022/02/07 12:25:57;;;;;;;15.43;3.15;;;;;;;14.34;45.88;102601.97;5027592;28;20026;-62
2022/02/07 12:28:43;;;;;;;8.95;2.75;;;;;;;13.10;49.67;102594.97;5039694;28;20028;-63
2022/02/07 12:31:21;;;;;;;17.77;4.30;;;;;;;12.46;51.90;102598.38;5033550;28;20037;-63
2022/02/07 12:33:48;;;;;;;16.15;2.55;;;;;;;12.01;53.54;102595.94;5034317;28;20061;-63
2022/02/07 12:36:14;;;;;;;13.75;2.58;;;;;;;11.26;56.49;102585.94;5033208;28;20025;-62
2022/02/07 12:38:42;;;;;;;10.85;2.35;;;;;;;11.61;55.86;102605.59;5034686;28;20041;-63
2022/02/07 12:41:11;;;;;;;8.05;2.25;;;;;;;11.80;54.39;102598.13;5032651;28;20033;-62
2022/02/07 12:43:38;;;;;;;12.32;2.10;;;;;;;12.56;53.67;102601.69;5034096;28;20044;-63
2022/02/07 12:46:07;;;;;;;12.25;3.00;;;;;;;13.02;49.56;102594.31;5032234;28;20099;-63
2022/02/07 12:48:36;;;;;;;11.70;2.70;;;;;;;11.75;52.54;102610.63;5032593;28;20026;-62
2022/02/07 12:51:02;;;;;;;9.27;2.20;;;;;;;11.10;56.20;102606.59;5032572;28;20551;-62
2022/02/07 12:53:30;;;;;;;13.18;2.22;;;;;;;11.55;55.80;102605.72;5032851;28;20021;-64
2022/02/07 12:55:59;;;;;;;13.13;2.60;;;;;;;12.82;51.68;102602.81;5029625;28;20386;-63
2022/02/07 12:58:26;;;;;;;11.82;2.30;;;;;;;12.63;50.11;102599.75;5027192;28;20120;-64
2022/02/07 13:00:52;;;;;;;11.63;2.30;;;;;;;11.99;51.00;102607.50;5033854;28;20108;-62
2022/02/07 13:03:19;;;;;;;11.48;2.50;;;;;;;12.08;50.93;102601.97;5039039;28;20632;-61
2022/02/07 13:05:49;;;;;;;11.32;2.50;;;;;;;11.39;53.88;102621.06;5037084;28;20044;-62
2022/02/07 13:08:16;;;;;;;15.13;3.20;;;;;;;11.93;52.48;102622.63;5033402;28;20029;-63
2022/02/07 13:10:50;;;;;;;8.73;2.22;;;;;;;12.37;51.49;102617.22;5027175;28;20069;-62
2022/02/07 13:13:29;;;;;;;7.90;2.05;;;;;;;12.93;50.82;102619.38;5034278;28;20691;-63
2022/02/07 13:15:56;;;;;;;10.20;2.60;;;;;;;13.27;49.09;102626.44;5032386;28;20076;-63
2022/02/07 13:18:22;;;;;;;11.90;2.38;;;;;;;13.62;46.31;102642.38;5033070;28;20025;-63
2022/02/07 13:20:50;;;;;;;10.30;2.15;;;;;;;13.30;47.04;102635.25;5033393;28;20503;-63
2022/02/07 13:23:18;;;;;;;11.48;2.35;;;;;;;13.22;47.21;102630.13;5032591;28;20060;-63
2022/02/07 13:25:48;;;;;;;8.60;2.13;;;;;;;13.61;46.58;102627.31;5030159;28;20070;-63
2022/02/07 13:28:21;;;;;;;8.90;2.25;;;;;;;13.51;46.45;102631.16;5020469;28;20367;-62
2022/02/07 13:30:50;;;;;;;9.15;2.20;;;;;;;12.64;48.00;102640.50;5029055;28;20029;-63
2022/02/07 13:33:15;;;;;;;12.25;2.40;;;;;;;12.56;48.22;102628.28;5032691;28;20036;-63
2022/02/07 13:35:45;;;;;;;14.73;3.05;;;;;;;12.45;49.54;102628.56;5033717;28;20025;-62
2022/02/07 13:38:12;;;;;;;12.82;2.28;;;;;;;12.33;48.87;102630.59;5032643;28;20552;-62
2022/02/07 13:40:40;;;;;;;15.38;2.38;;;;;;;12.18;49.44;102626.53;5032818;28;20057;-63
2022/02/07 13:43:10;;;;;;;15.43;2.25;;;;;;;11.92;49.66;102628.81;5032294;28;20116;-63
2022/02/07 13:45:35;;;;;;;10.85;2.03;;;;;;;11.69;48.93;102631.09;5018802;28;20024;-63
2022/02/07 13:48:02;;;;;;;7.28;2.00;;;;;;;11.37;51.21;102638.81;5032237;28;20389;-62
2022/02/07 13:50:30;;;;;;;15.07;2.33;;;;;;;11.59;51.25;102643.69;5032342;28;20064;-64
2022/02/07 13:53:02;;;;;;;8.40;1.85;;;;;;;11.60;49.97;102634.81;5032680;28;20079;-63
2022/02/07 13:55:33;;;;;;;11.88;2.10;;;;;;;11.23;50.08;102649.66;5025872;28;20077;-61